Terminal Aerodrome Forecast
Issued by NWS

Home | Current Version | Previous Version | Text Only | Print | Product List | Glossary Off
Versions: 1 2 3 4 5 6 7 8 9 10 11 12 13 14 15 16 17 18 19 20 21 22 23 24

000
FTUS43 KBIS 011100
TAFDIK
TAF
KDIK 011135Z 0112/0212 28020G30KT P6SM SCT015 OVC025
     FM011600 29020G30KT P6SM BKN025 OVC035
     FM012000 29019G28KT P6SM BKN035
     FM020200 29008KT P6SM SCT035 BKN250=

USA.gov is the U.S. government's official web portal to all federal, state and local government web resources and services.